sensor_id;sensor_type;location;lat;lon;timestamp;P1;durP1;ratioP1;P2;durP2;ratioP2
4726;SDS011;2377;51.734;8.950;2023-04-24T00:01:09;2.17;;;1.10;;
4726;SDS011;2377;51.734;8.950;2023-04-24T00:03:37;2.10;;;1.10;;
4726;SDS011;2377;51.734;8.950;2023-04-24T00:06:06;2.27;;;1.13;;
4726;SDS011;2377;51.734;8.950;2023-04-24T00:08:33;2.90;;;1.33;;
4726;SDS011;2377;51.734;8.950;2023-04-24T00:11:01;2.50;;;1.30;;
4726;SDS011;2377;51.734;8.950;2023-04-24T00:13:28;2.07;;;1.30;;
4726;SDS011;2377;51.734;8.950;2023-04-24T00:15:55;2.10;;;1.10;;
4726;SDS011;2377;51.734;8.950;2023-04-24T00:18:22;2.20;;;1.40;;
4726;SDS011;2377;51.734;8.950;2023-04-24T00:20:49;2.67;;;1.23;;
4726;SDS011;2377;51.734;8.950;2023-04-24T00:23:17;3.03;;;1.30;;
4726;SDS011;2377;51.734;8.950;2023-04-24T00:25:44;2.37;;;1.00;;
4726;SDS011;2377;51.734;8.950;2023-04-24T00:28:11;2.50;;;1.00;;
4726;SDS011;2377;51.734;8.950;2023-04-24T00:30:38;3.90;;;1.17;;
4726;SDS011;2377;51.734;8.950;2023-04-24T00:33:05;2.07;;;0.90;;
4726;SDS011;2377;51.734;8.950;2023-04-24T00:35:32;2.20;;;1.00;;
4726;SDS011;2377;51.734;8.950;2023-04-24T00:37:59;1.80;;;1.10;;
4726;SDS011;2377;51.734;8.950;2023-04-24T00:40:28;3.07;;;1.30;;
4726;SDS011;2377;51.734;8.950;2023-04-24T00:42:55;1.80;;;1.10;;
4726;SDS011;2377;51.734;8.950;2023-04-24T00:45:22;2.57;;;1.20;;
4726;SDS011;2377;51.734;8.950;2023-04-24T00:47:50;3.03;;;1.10;;
4726;SDS011;2377;51.734;8.950;2023-04-24T00:50:20;2.57;;;1.00;;
4726;SDS011;2377;51.734;8.950;2023-04-24T00:52:47;3.63;;;1.63;;
4726;SDS011;2377;51.734;8.950;2023-04-24T00:55:14;1.50;;;0.90;;
4726;SDS011;2377;51.734;8.950;2023-04-24T00:57:43;1.80;;;1.00;;
4726;SDS011;2377;51.734;8.950;2023-04-24T01:00:11;2.13;;;1.07;;
4726;SDS011;2377;51.734;8.950;2023-04-24T01:02:40;1.60;;;0.90;;
4726;SDS011;2377;51.734;8.950;2023-04-24T01:05:10;2.20;;;1.10;;
4726;SDS011;2377;51.734;8.950;2023-04-24T01:07:38;3.10;;;1.20;;
4726;SDS011;2377;51.734;8.950;2023-04-24T01:10:09;2.10;;;1.20;;
4726;SDS011;2377;51.734;8.950;2023-04-24T01:12:37;1.90;;;1.10;;
4726;SDS011;2377;51.734;8.950;2023-04-24T01:15:07;2.10;;;1.10;;
4726;SDS011;2377;51.734;8.950;2023-04-24T01:17:35;1.83;;;1.10;;
4726;SDS011;2377;51.734;8.950;2023-04-24T01:20:03;1.90;;;1.10;;
4726;SDS011;2377;51.734;8.950;2023-04-24T01:22:33;1.80;;;1.00;;
4726;SDS011;2377;51.734;8.950;2023-04-24T01:25:00;2.67;;;1.20;;
4726;SDS011;2377;51.734;8.950;2023-04-24T01:27:28;1.73;;;1.07;;
4726;SDS011;2377;51.734;8.950;2023-04-24T01:29:58;2.20;;;1.00;;
4726;SDS011;2377;51.734;8.950;2023-04-24T01:32:25;4.57;;;1.00;;
4726;SDS011;2377;51.734;8.950;2023-04-24T01:34:53;2.03;;;1.10;;
4726;SDS011;2377;51.734;8.950;2023-04-24T01:37:21;2.20;;;1.17;;
4726;SDS011;2377;51.734;8.950;2023-04-24T01:39:49;2.27;;;1.23;;
4726;SDS011;2377;51.734;8.950;2023-04-24T01:42:16;3.00;;;1.20;;
4726;SDS011;2377;51.734;8.950;2023-04-24T01:44:43;4.53;;;1.00;;
4726;SDS011;2377;51.734;8.950;2023-04-24T01:47:12;2.30;;;1.10;;
4726;SDS011;2377;51.734;8.950;2023-04-24T01:49:39;1.70;;;1.03;;
4726;SDS011;2377;51.734;8.950;2023-04-24T01:52:06;2.10;;;1.07;;
4726;SDS011;2377;51.734;8.950;2023-04-24T01:54:33;2.30;;;1.10;;
4726;SDS011;2377;51.734;8.950;2023-04-24T01:57:01;4.30;;;1.10;;
4726;SDS011;2377;51.734;8.950;2023-04-24T01:59:28;1.90;;;1.13;;
4726;SDS011;2377;51.734;8.950;2023-04-24T02:01:59;2.10;;;1.10;;
4726;SDS011;2377;51.734;8.950;2023-04-24T02:04:26;2.03;;;1.27;;
4726;SDS011;2377;51.734;8.950;2023-04-24T02:06:53;1.70;;;1.00;;
4726;SDS011;2377;51.734;8.950;2023-04-24T02:09:20;3.20;;;1.07;;
4726;SDS011;2377;51.734;8.950;2023-04-24T02:11:47;2.27;;;1.13;;
4726;SDS011;2377;51.734;8.950;2023-04-24T02:14:15;1.90;;;1.20;;
4726;SDS011;2377;51.734;8.950;2023-04-24T02:16:42;2.30;;;1.13;;
4726;SDS011;2377;51.734;8.950;2023-04-24T02:19:09;3.00;;;1.20;;
4726;SDS011;2377;51.734;8.950;2023-04-24T02:21:36;2.40;;;1.03;;
4726;SDS011;2377;51.734;8.950;2023-04-24T02:24:03;2.13;;;1.00;;
4726;SDS011;2377;51.734;8.950;2023-04-24T02:26:30;2.13;;;1.10;;
4726;SDS011;2377;51.734;8.950;2023-04-24T02:28:57;3.77;;;1.40;;
4726;SDS011;2377;51.734;8.950;2023-04-24T02:31:26;2.80;;;1.23;;
4726;SDS011;2377;51.734;8.950;2023-04-24T02:33:53;4.50;;;1.10;;
4726;SDS011;2377;51.734;8.950;2023-04-24T02:36:20;1.90;;;1.20;;
4726;SDS011;2377;51.734;8.950;2023-04-24T02:38:47;2.00;;;1.10;;
4726;SDS011;2377;51.734;8.950;2023-04-24T02:41:14;3.60;;;1.20;;
4726;SDS011;2377;51.734;8.950;2023-04-24T02:43:40;2.00;;;1.10;;
4726;SDS011;2377;51.734;8.950;2023-04-24T02:46:07;2.17;;;1.13;;
4726;SDS011;2377;51.734;8.950;2023-04-24T02:48:36;1.90;;;0.90;;
4726;SDS011;2377;51.734;8.950;2023-04-24T02:51:03;2.20;;;1.20;;
4726;SDS011;2377;51.734;8.950;2023-04-24T02:53:31;1.90;;;1.00;;
4726;SDS011;2377;51.734;8.950;2023-04-24T02:55:58;4.13;;;1.17;;
4726;SDS011;2377;51.734;8.950;2023-04-24T02:58:25;1.70;;;0.97;;
4726;SDS011;2377;51.734;8.950;2023-04-24T03:00:53;2.83;;;1.30;;
4726;SDS011;2377;51.734;8.950;2023-04-24T03:03:20;3.60;;;1.40;;
4726;SDS011;2377;51.734;8.950;2023-04-24T03:05:49;2.20;;;1.20;;
4726;SDS011;2377;51.734;8.950;2023-04-24T03:08:16;1.90;;;1.10;;
4726;SDS011;2377;51.734;8.950;2023-04-24T03:10:42;2.10;;;1.27;;
4726;SDS011;2377;51.734;8.950;2023-04-24T03:13:09;2.93;;;1.47;;
4726;SDS011;2377;51.734;8.950;2023-04-24T03:15:36;2.03;;;1.37;;
4726;SDS011;2377;51.734;8.950;2023-04-24T03:18:03;2.07;;;1.30;;
4726;SDS011;2377;51.734;8.950;2023-04-24T03:20:30;3.90;;;1.47;;
4726;SDS011;2377;51.734;8.950;2023-04-24T03:22:58;3.23;;;1.40;;
4726;SDS011;2377;51.734;8.950;2023-04-24T03:25:25;3.60;;;1.30;;
4726;SDS011;2377;51.734;8.950;2023-04-24T03:27:52;2.40;;;1.23;;
4726;SDS011;2377;51.734;8.950;2023-04-24T03:30:19;2.20;;;1.33;;
4726;SDS011;2377;51.734;8.950;2023-04-24T03:32:46;3.73;;;1.30;;
4726;SDS011;2377;51.734;8.950;2023-04-24T03:35:13;1.80;;;1.10;;
4726;SDS011;2377;51.734;8.950;2023-04-24T03:37:40;2.80;;;1.37;;
4726;SDS011;2377;51.734;8.950;2023-04-24T03:40:09;2.63;;;1.40;;
4726;SDS011;2377;51.734;8.950;2023-04-24T03:42:36;2.30;;;1.50;;
4726;SDS011;2377;51.734;8.950;2023-04-24T03:45:04;2.63;;;1.10;;
4726;SDS011;2377;51.734;8.950;2023-04-24T03:47:32;2.70;;;1.60;;
4726;SDS011;2377;51.734;8.950;2023-04-24T03:49:59;2.20;;;1.20;;
4726;SDS011;2377;51.734;8.950;2023-04-24T03:52:27;2.40;;;1.20;;
4726;SDS011;2377;51.734;8.950;2023-04-24T03:54:53;2.37;;;1.60;;
4726;SDS011;2377;51.734;8.950;2023-04-24T03:57:22;3.60;;;1.50;;
4726;SDS011;2377;51.734;8.950;2023-04-24T03:59:49;2.90;;;1.23;;
4726;SDS011;2377;51.734;8.950;2023-04-24T04:02:16;2.00;;;1.20;;
4726;SDS011;2377;51.734;8.950;2023-04-24T04:04:43;2.20;;;1.20;;
4726;SDS011;2377;51.734;8.950;2023-04-24T04:07:10;2.50;;;1.43;;
4726;SDS011;2377;51.734;8.950;2023-04-24T04:09:38;2.93;;;1.27;;
4726;SDS011;2377;51.734;8.950;2023-04-24T04:12:05;2.30;;;1.40;;
4726;SDS011;2377;51.734;8.950;2023-04-24T04:14:33;2.47;;;1.27;;
4726;SDS011;2377;51.734;8.950;2023-04-24T04:17:00;2.10;;;1.33;;
4726;SDS011;2377;51.734;8.950;2023-04-24T04:19:27;4.07;;;1.67;;
4726;SDS011;2377;51.734;8.950;2023-04-24T04:21:54;2.63;;;1.30;;
4726;SDS011;2377;51.734;8.950;2023-04-24T04:24:21;2.60;;;1.27;;
4726;SDS011;2377;51.734;8.950;2023-04-24T04:26:49;2.07;;;1.17;;
4726;SDS011;2377;51.734;8.950;2023-04-24T04:29:17;2.27;;;1.30;;
4726;SDS011;2377;51.734;8.950;2023-04-24T04:31:45;2.10;;;1.23;;
4726;SDS011;2377;51.734;8.950;2023-04-24T04:34:12;2.30;;;1.40;;
4726;SDS011;2377;51.734;8.950;2023-04-24T04:36:39;2.60;;;1.53;;
4726;SDS011;2377;51.734;8.950;2023-04-24T04:39:08;2.60;;;1.67;;
4726;SDS011;2377;51.734;8.950;2023-04-24T04:41:35;2.97;;;1.67;;
4726;SDS011;2377;51.734;8.950;2023-04-24T04:44:05;4.20;;;1.50;;
4726;SDS011;2377;51.734;8.950;2023-04-24T04:46:33;2.37;;;1.50;;
4726;SDS011;2377;51.734;8.950;2023-04-24T04:49:03;3.40;;;1.83;;
4726;SDS011;2377;51.734;8.950;2023-04-24T04:51:31;2.67;;;1.60;;
4726;SDS011;2377;51.734;8.950;2023-04-24T04:53:57;2.60;;;1.50;;
4726;SDS011;2377;51.734;8.950;2023-04-24T04:56:24;2.93;;;1.50;;
4726;SDS011;2377;51.734;8.950;2023-04-24T04:58:51;3.17;;;1.57;;
4726;SDS011;2377;51.734;8.950;2023-04-24T05:01:18;3.23;;;1.50;;
4726;SDS011;2377;51.734;8.950;2023-04-24T05:03:46;2.10;;;1.40;;
4726;SDS011;2377;51.734;8.950;2023-04-24T05:06:14;2.60;;;1.83;;
4726;SDS011;2377;51.734;8.950;2023-04-24T05:08:42;3.00;;;2.10;;
4726;SDS011;2377;51.734;8.950;2023-04-24T05:11:08;4.57;;;2.60;;
4726;SDS011;2377;51.734;8.950;2023-04-24T05:13:35;3.27;;;2.10;;
4726;SDS011;2377;51.734;8.950;2023-04-24T05:16:02;3.93;;;2.83;;
4726;SDS011;2377;51.734;8.950;2023-04-24T05:18:29;3.63;;;3.00;;
4726;SDS011;2377;51.734;8.950;2023-04-24T05:20:56;5.03;;;3.30;;
4726;SDS011;2377;51.734;8.950;2023-04-24T05:23:25;6.73;;;3.33;;
4726;SDS011;2377;51.734;8.950;2023-04-24T05:25:51;4.80;;;3.60;;
4726;SDS011;2377;51.734;8.950;2023-04-24T05:28:18;7.30;;;4.10;;
4726;SDS011;2377;51.734;8.950;2023-04-24T05:30:45;6.47;;;4.17;;
4726;SDS011;2377;51.734;8.950;2023-04-24T05:33:12;5.33;;;4.10;;
4726;SDS011;2377;51.734;8.950;2023-04-24T05:35:40;6.73;;;4.53;;
4726;SDS011;2377;51.734;8.950;2023-04-24T05:38:10;5.60;;;4.40;;
4726;SDS011;2377;51.734;8.950;2023-04-24T05:40:39;6.70;;;4.63;;
4726;SDS011;2377;51.734;8.950;2023-04-24T05:43:06;7.17;;;5.80;;
4726;SDS011;2377;51.734;8.950;2023-04-24T05:45:33;9.90;;;7.07;;
4726;SDS011;2377;51.734;8.950;2023-04-24T05:48:01;9.80;;;7.27;;
4726;SDS011;2377;51.734;8.950;2023-04-24T05:50:28;11.13;;;7.63;;
4726;SDS011;2377;51.734;8.950;2023-04-24T05:52:55;12.63;;;7.97;;
4726;SDS011;2377;51.734;8.950;2023-04-24T05:55:23;13.90;;;8.87;;
4726;SDS011;2377;51.734;8.950;2023-04-24T05:57:51;11.80;;;7.90;;
4726;SDS011;2377;51.734;8.950;2023-04-24T06:00:18;13.70;;;8.97;;
4726;SDS011;2377;51.734;8.950;2023-04-24T06:02:45;12.40;;;8.17;;
4726;SDS011;2377;51.734;8.950;2023-04-24T06:05:13;11.13;;;7.70;;
4726;SDS011;2377;51.734;8.950;2023-04-24T06:07:40;11.00;;;7.40;;
4726;SDS011;2377;51.734;8.950;2023-04-24T06:10:07;11.27;;;6.93;;
4726;SDS011;2377;51.734;8.950;2023-04-24T06:12:35;10.93;;;7.40;;
4726;SDS011;2377;51.734;8.950;2023-04-24T06:15:04;12.57;;;8.03;;
4726;SDS011;2377;51.734;8.950;2023-04-24T06:17:33;10.67;;;7.13;;
4726;SDS011;2377;51.734;8.950;2023-04-24T06:20:00;10.63;;;7.30;;
4726;SDS011;2377;51.734;8.950;2023-04-24T06:22:28;9.10;;;6.90;;
4726;SDS011;2377;51.734;8.950;2023-04-24T06:24:55;12.23;;;7.30;;
4726;SDS011;2377;51.734;8.950;2023-04-24T06:27:22;9.17;;;7.20;;
4726;SDS011;2377;51.734;8.950;2023-04-24T06:29:49;8.80;;;5.97;;
4726;SDS011;2377;51.734;8.950;2023-04-24T06:32:20;9.13;;;7.23;;
4726;SDS011;2377;51.734;8.950;2023-04-24T06:34:48;11.33;;;6.77;;
4726;SDS011;2377;51.734;8.950;2023-04-24T06:37:17;8.77;;;6.50;;
4726;SDS011;2377;51.734;8.950;2023-04-24T06:39:45;10.70;;;6.40;;
4726;SDS011;2377;51.734;8.950;2023-04-24T06:42:12;7.53;;;5.60;;
4726;SDS011;2377;51.734;8.950;2023-04-24T06:44:39;9.80;;;6.50;;
4726;SDS011;2377;51.734;8.950;2023-04-24T06:47:06;8.37;;;6.13;;
4726;SDS011;2377;51.734;8.950;2023-04-24T06:49:36;8.70;;;6.40;;
4726;SDS011;2377;51.734;8.950;2023-04-24T06:52:03;12.00;;;6.03;;
4726;SDS011;2377;51.734;8.950;2023-04-24T06:54:30;9.93;;;6.63;;
4726;SDS011;2377;51.734;8.950;2023-04-24T06:56:58;7.87;;;5.80;;
4726;SDS011;2377;51.734;8.950;2023-04-24T06:59:27;10.93;;;6.30;;
4726;SDS011;2377;51.734;8.950;2023-04-24T07:01:54;11.37;;;6.93;;
4726;SDS011;2377;51.734;8.950;2023-04-24T07:04:22;10.23;;;7.40;;
4726;SDS011;2377;51.734;8.950;2023-04-24T07:06:51;12.70;;;7.40;;
4726;SDS011;2377;51.734;8.950;2023-04-24T07:09:20;10.33;;;7.63;;
4726;SDS011;2377;51.734;8.950;2023-04-24T07:11:48;9.90;;;7.40;;
4726;SDS011;2377;51.734;8.950;2023-04-24T07:14:16;10.90;;;7.50;;
4726;SDS011;2377;51.734;8.950;2023-04-24T07:16:43;11.17;;;6.90;;
4726;SDS011;2377;51.734;8.950;2023-04-24T07:19:12;9.57;;;6.63;;
4726;SDS011;2377;51.734;8.950;2023-04-24T07:21:39;11.90;;;7.27;;
4726;SDS011;2377;51.734;8.950;2023-04-24T07:24:08;10.00;;;7.30;;
4726;SDS011;2377;51.734;8.950;2023-04-24T07:26:36;9.13;;;6.33;;
4726;SDS011;2377;51.734;8.950;2023-04-24T07:29:04;8.90;;;7.23;;
4726;SDS011;2377;51.734;8.950;2023-04-24T07:31:30;11.17;;;6.23;;
4726;SDS011;2377;51.734;8.950;2023-04-24T07:33:57;9.50;;;5.90;;
4726;SDS011;2377;51.734;8.950;2023-04-24T07:36:24;9.97;;;7.13;;
4726;SDS011;2377;51.734;8.950;2023-04-24T07:38:52;9.57;;;5.47;;
4726;SDS011;2377;51.734;8.950;2023-04-24T07:41:22;8.43;;;6.10;;
4726;SDS011;2377;51.734;8.950;2023-04-24T07:43:49;9.83;;;6.20;;
4726;SDS011;2377;51.734;8.950;2023-04-24T07:46:16;8.67;;;6.30;;
4726;SDS011;2377;51.734;8.950;2023-04-24T07:48:43;8.20;;;5.10;;
4726;SDS011;2377;51.734;8.950;2023-04-24T07:51:11;10.57;;;5.97;;
4726;SDS011;2377;51.734;8.950;2023-04-24T07:53:38;7.07;;;5.60;;
4726;SDS011;2377;51.734;8.950;2023-04-24T07:56:05;7.87;;;5.17;;
4726;SDS011;2377;51.734;8.950;2023-04-24T07:58:34;7.10;;;4.73;;
4726;SDS011;2377;51.734;8.950;2023-04-24T08:01:01;7.37;;;5.00;;
4726;SDS011;2377;51.734;8.950;2023-04-24T08:03:28;5.87;;;5.07;;
4726;SDS011;2377;51.734;8.950;2023-04-24T08:05:55;6.63;;;4.70;;
4726;SDS011;2377;51.734;8.950;2023-04-24T08:08:22;7.23;;;4.77;;
4726;SDS011;2377;51.734;8.950;2023-04-24T08:10:49;7.03;;;4.37;;
4726;SDS011;2377;51.734;8.950;2023-04-24T08:13:16;5.27;;;4.40;;
4726;SDS011;2377;51.734;8.950;2023-04-24T08:15:44;8.20;;;4.40;;
4726;SDS011;2377;51.734;8.950;2023-04-24T08:18:11;9.23;;;4.70;;
4726;SDS011;2377;51.734;8.950;2023-04-24T08:20:38;6.17;;;4.13;;
4726;SDS011;2377;51.734;8.950;2023-04-24T08:23:05;5.83;;;4.40;;
4726;SDS011;2377;51.734;8.950;2023-04-24T08:25:32;6.00;;;4.33;;
4726;SDS011;2377;51.734;8.950;2023-04-24T08:28:00;7.57;;;3.80;;
4726;SDS011;2377;51.734;8.950;2023-04-24T08:30:29;9.80;;;4.60;;
4726;SDS011;2377;51.734;8.950;2023-04-24T08:32:57;5.40;;;4.40;;
4726;SDS011;2377;51.734;8.950;2023-04-24T08:35:24;5.53;;;4.00;;
4726;SDS011;2377;51.734;8.950;2023-04-24T08:37:51;9.53;;;4.17;;
4726;SDS011;2377;51.734;8.950;2023-04-24T08:40:20;7.77;;;4.40;;
4726;SDS011;2377;51.734;8.950;2023-04-24T08:42:54;8.57;;;5.17;;
4726;SDS011;2377;51.734;8.950;2023-04-24T08:45:22;5.47;;;3.57;;
4726;SDS011;2377;51.734;8.950;2023-04-24T08:47:51;5.90;;;3.67;;
4726;SDS011;2377;51.734;8.950;2023-04-24T08:50:21;5.50;;;4.10;;
4726;SDS011;2377;51.734;8.950;2023-04-24T08:52:49;6.60;;;4.00;;
4726;SDS011;2377;51.734;8.950;2023-04-24T08:55:18;4.57;;;3.40;;
4726;SDS011;2377;51.734;8.950;2023-04-24T08:57:48;6.80;;;3.10;;
4726;SDS011;2377;51.734;8.950;2023-04-24T09:00:19;5.07;;;3.70;;
4726;SDS011;2377;51.734;8.950;2023-04-24T09:02:48;5.23;;;3.53;;
4726;SDS011;2377;51.734;8.950;2023-04-24T09:05:16;5.17;;;3.57;;
4726;SDS011;2377;51.734;8.950;2023-04-24T09:07:49;4.80;;;3.20;;
4726;SDS011;2377;51.734;8.950;2023-04-24T09:10:21;4.40;;;3.20;;
4726;SDS011;2377;51.734;8.950;2023-04-24T09:12:51;4.27;;;3.20;;
4726;SDS011;2377;51.734;8.950;2023-04-24T09:15:18;5.57;;;3.70;;
4726;SDS011;2377;51.734;8.950;2023-04-24T09:17:46;5.37;;;3.60;;
4726;SDS011;2377;51.734;8.950;2023-04-24T09:20:13;4.70;;;3.03;;
4726;SDS011;2377;51.734;8.950;2023-04-24T09:22:41;4.57;;;3.07;;
4726;SDS011;2377;51.734;8.950;2023-04-24T09:25:10;3.90;;;2.87;;
4726;SDS011;2377;51.734;8.950;2023-04-24T09:27:41;4.20;;;2.87;;
4726;SDS011;2377;51.734;8.950;2023-04-24T09:30:10;3.87;;;2.53;;
4726;SDS011;2377;51.734;8.950;2023-04-24T09:32:39;3.77;;;2.83;;
4726;SDS011;2377;51.734;8.950;2023-04-24T09:35:07;4.50;;;2.67;;
4726;SDS011;2377;51.734;8.950;2023-04-24T09:37:37;4.03;;;2.60;;
4726;SDS011;2377;51.734;8.950;2023-04-24T09:40:14;5.70;;;3.20;;
4726;SDS011;2377;51.734;8.950;2023-04-24T09:42:43;4.43;;;2.63;;
4726;SDS011;2377;51.734;8.950;2023-04-24T09:45:12;2.97;;;2.23;;
4726;SDS011;2377;51.734;8.950;2023-04-24T09:47:39;2.80;;;2.00;;
4726;SDS011;2377;51.734;8.950;2023-04-24T09:50:11;2.80;;;1.90;;
4726;SDS011;2377;51.734;8.950;2023-04-24T09:52:41;2.73;;;2.03;;
4726;SDS011;2377;51.734;8.950;2023-04-24T09:55:16;3.50;;;2.40;;
4726;SDS011;2377;51.734;8.950;2023-04-24T09:57:49;3.27;;;2.27;;
4726;SDS011;2377;51.734;8.950;2023-04-24T10:00:18;3.53;;;2.10;;
4726;SDS011;2377;51.734;8.950;2023-04-24T10:02:54;2.93;;;2.10;;
4726;SDS011;2377;51.734;8.950;2023-04-24T10:05:27;5.03;;;2.17;;
4726;SDS011;2377;51.734;8.950;2023-04-24T10:07:56;3.90;;;2.33;;
4726;SDS011;2377;51.734;8.950;2023-04-24T10:10:28;3.07;;;2.07;;
4726;SDS011;2377;51.734;8.950;2023-04-24T10:12:55;4.10;;;2.10;;
4726;SDS011;2377;51.734;8.950;2023-04-24T10:15:23;2.60;;;1.77;;
4726;SDS011;2377;51.734;8.950;2023-04-24T10:17:52;2.50;;;1.57;;
4726;SDS011;2377;51.734;8.950;2023-04-24T10:20:20;2.10;;;1.40;;
4726;SDS011;2377;51.734;8.950;2023-04-24T10:22:50;2.73;;;1.70;;
4726;SDS011;2377;51.734;8.950;2023-04-24T10:25:20;2.43;;;1.50;;
4726;SDS011;2377;51.734;8.950;2023-04-24T10:27:52;2.87;;;1.50;;
4726;SDS011;2377;51.734;8.950;2023-04-24T10:30:22;1.80;;;1.20;;
4726;SDS011;2377;51.734;8.950;2023-04-24T10:32:49;2.20;;;1.40;;
4726;SDS011;2377;51.734;8.950;2023-04-24T10:35:17;2.60;;;1.30;;
4726;SDS011;2377;51.734;8.950;2023-04-24T10:37:48;2.30;;;1.33;;
4726;SDS011;2377;51.734;8.950;2023-04-24T10:40:25;2.40;;;1.20;;
4726;SDS011;2377;51.734;8.950;2023-04-24T10:42:55;2.20;;;1.43;;
4726;SDS011;2377;51.734;8.950;2023-04-24T10:45:23;2.50;;;1.20;;
4726;SDS011;2377;51.734;8.950;2023-04-24T10:47:51;2.20;;;1.00;;
4726;SDS011;2377;51.734;8.950;2023-04-24T10:50:22;1.60;;;0.90;;
4726;SDS011;2377;51.734;8.950;2023-04-24T10:52:49;3.50;;;1.20;;
4726;SDS011;2377;51.734;8.950;2023-04-24T10:55:29;3.80;;;1.10;;
4726;SDS011;2377;51.734;8.950;2023-04-24T10:58:09;1.77;;;1.03;;
4726;SDS011;2377;51.734;8.950;2023-04-24T11:00:37;1.70;;;0.90;;
4726;SDS011;2377;51.734;8.950;2023-04-24T11:03:05;2.33;;;1.00;;
4726;SDS011;2377;51.734;8.950;2023-04-24T11:05:50;1.57;;;0.90;;
4726;SDS011;2377;51.734;8.950;2023-04-24T11:08:26;1.53;;;0.90;;
4726;SDS011;2377;51.734;8.950;2023-04-24T11:10:57;3.40;;;1.03;;
4726;SDS011;2377;51.734;8.950;2023-04-24T11:16:34;2.27;;;1.13;;
4726;SDS011;2377;51.734;8.950;2023-04-24T11:19:17;2.43;;;1.10;;
4726;SDS011;2377;51.734;8.950;2023-04-24T11:21:54;2.13;;;1.20;;
4726;SDS011;2377;51.734;8.950;2023-04-24T11:24:32;3.60;;;1.33;;
4726;SDS011;2377;51.734;8.950;2023-04-24T11:27:06;1.70;;;1.07;;
4726;SDS011;2377;51.734;8.950;2023-04-24T11:29:46;1.77;;;1.07;;
4726;SDS011;2377;51.734;8.950;2023-04-24T11:32:15;2.80;;;1.10;;
4726;SDS011;2377;51.734;8.950;2023-04-24T11:34:51;2.23;;;1.20;;
4726;SDS011;2377;51.734;8.950;2023-04-24T11:37:21;1.90;;;1.00;;
4726;SDS011;2377;51.734;8.950;2023-04-24T11:39:52;2.00;;;1.23;;
4726;SDS011;2377;51.734;8.950;2023-04-24T11:42:21;2.07;;;1.40;;
4726;SDS011;2377;51.734;8.950;2023-04-24T11:44:52;3.17;;;1.43;;
4726;SDS011;2377;51.734;8.950;2023-04-24T11:47:27;2.70;;;1.50;;
4726;SDS011;2377;51.734;8.950;2023-04-24T11:49:55;2.17;;;1.47;;
4726;SDS011;2377;51.734;8.950;2023-04-24T11:52:22;2.40;;;1.67;;
4726;SDS011;2377;51.734;8.950;2023-04-24T11:54:49;2.30;;;1.70;;
4726;SDS011;2377;51.734;8.950;2023-04-24T11:57:16;2.33;;;1.90;;
4726;SDS011;2377;51.734;8.950;2023-04-24T11:59:46;3.07;;;1.93;;
4726;SDS011;2377;51.734;8.950;2023-04-24T12:02:21;2.47;;;1.90;;
4726;SDS011;2377;51.734;8.950;2023-04-24T12:04:49;3.10;;;2.07;;
4726;SDS011;2377;51.734;8.950;2023-04-24T12:07:16;2.80;;;2.13;;
4726;SDS011;2377;51.734;8.950;2023-04-24T12:09:44;2.73;;;2.00;;
4726;SDS011;2377;51.734;8.950;2023-04-24T12:12:14;3.53;;;2.50;;
4726;SDS011;2377;51.734;8.950;2023-04-24T12:14:43;2.60;;;2.20;;
4726;SDS011;2377;51.734;8.950;2023-04-24T12:17:13;2.53;;;2.00;;
4726;SDS011;2377;51.734;8.950;2023-04-24T12:19:45;4.00;;;2.37;;
4726;SDS011;2377;51.734;8.950;2023-04-24T12:22:14;4.00;;;2.20;;
4726;SDS011;2377;51.734;8.950;2023-04-24T12:24:55;2.80;;;1.83;;
4726;SDS011;2377;51.734;8.950;2023-04-24T12:27:23;3.13;;;2.00;;
4726;SDS011;2377;51.734;8.950;2023-04-24T12:29:52;5.90;;;2.10;;
4726;SDS011;2377;51.734;8.950;2023-04-24T12:32:21;5.60;;;2.03;;
4726;SDS011;2377;51.734;8.950;2023-04-24T12:34:50;8.73;;;2.20;;
4726;SDS011;2377;51.734;8.950;2023-04-24T12:37:17;3.10;;;1.90;;
4726;SDS011;2377;51.734;8.950;2023-04-24T12:39:57;5.30;;;2.40;;
4726;SDS011;2377;51.734;8.950;2023-04-24T12:42:26;3.43;;;2.10;;
4726;SDS011;2377;51.734;8.950;2023-04-24T12:44:56;4.67;;;2.50;;
4726;SDS011;2377;51.734;8.950;2023-04-24T12:47:24;3.50;;;2.20;;
4726;SDS011;2377;51.734;8.950;2023-04-24T12:49:53;3.93;;;2.23;;
4726;SDS011;2377;51.734;8.950;2023-04-24T12:52:21;3.73;;;2.13;;
4726;SDS011;2377;51.734;8.950;2023-04-24T12:54:48;5.57;;;2.83;;
4726;SDS011;2377;51.734;8.950;2023-04-24T12:57:16;6.83;;;3.53;;
4726;SDS011;2377;51.734;8.950;2023-04-24T12:59:43;4.50;;;2.33;;
4726;SDS011;2377;51.734;8.950;2023-04-24T13:02:10;6.43;;;3.63;;
4726;SDS011;2377;51.734;8.950;2023-04-24T13:04:37;5.10;;;3.00;;
4726;SDS011;2377;51.734;8.950;2023-04-24T13:07:06;4.63;;;2.80;;
4726;SDS011;2377;51.734;8.950;2023-04-24T13:09:34;4.20;;;2.57;;
4726;SDS011;2377;51.734;8.950;2023-04-24T13:12:01;6.00;;;3.40;;
4726;SDS011;2377;51.734;8.950;2023-04-24T13:14:30;4.43;;;3.03;;
4726;SDS011;2377;51.734;8.950;2023-04-24T13:16:57;8.70;;;4.10;;
4726;SDS011;2377;51.734;8.950;2023-04-24T13:19:24;8.80;;;5.10;;
4726;SDS011;2377;51.734;8.950;2023-04-24T13:21:52;9.70;;;4.80;;
4726;SDS011;2377;51.734;8.950;2023-04-24T13:24:23;8.60;;;5.10;;
4726;SDS011;2377;51.734;8.950;2023-04-24T13:26:52;5.33;;;4.53;;
4726;SDS011;2377;51.734;8.950;2023-04-24T13:29:19;9.37;;;5.30;;
4726;SDS011;2377;51.734;8.950;2023-04-24T13:31:46;13.60;;;5.77;;
4726;SDS011;2377;51.734;8.950;2023-04-24T13:34:14;9.57;;;5.37;;
4726;SDS011;2377;51.734;8.950;2023-04-24T13:36:41;12.97;;;6.30;;
4726;SDS011;2377;51.734;8.950;2023-04-24T13:39:08;11.30;;;5.60;;
4726;SDS011;2377;51.734;8.950;2023-04-24T13:41:37;9.30;;;6.23;;
4726;SDS011;2377;51.734;8.950;2023-04-24T13:44:04;12.30;;;6.47;;
4726;SDS011;2377;51.734;8.950;2023-04-24T13:46:32;10.53;;;6.10;;
4726;SDS011;2377;51.734;8.950;2023-04-24T13:48:59;10.17;;;6.83;;
4726;SDS011;2377;51.734;8.950;2023-04-24T13:51:29;10.90;;;5.70;;
4726;SDS011;2377;51.734;8.950;2023-04-24T13:53:56;12.50;;;5.63;;
4726;SDS011;2377;51.734;8.950;2023-04-24T13:56:23;12.53;;;5.03;;
4726;SDS011;2377;51.734;8.950;2023-04-24T13:58:51;11.93;;;5.97;;
4726;SDS011;2377;51.734;8.950;2023-04-24T14:01:19;23.27;;;6.70;;
4726;SDS011;2377;51.734;8.950;2023-04-24T14:03:49;18.33;;;7.40;;
4726;SDS011;2377;51.734;8.950;2023-04-24T14:06:16;13.70;;;7.27;;
4726;SDS011;2377;51.734;8.950;2023-04-24T14:08:43;16.00;;;8.10;;
4726;SDS011;2377;51.734;8.950;2023-04-24T14:11:10;10.67;;;6.90;;
4726;SDS011;2377;51.734;8.950;2023-04-24T14:13:37;12.60;;;7.87;;
4726;SDS011;2377;51.734;8.950;2023-04-24T14:16:08;16.10;;;8.27;;
4726;SDS011;2377;51.734;8.950;2023-04-24T14:18:35;21.93;;;8.77;;
4726;SDS011;2377;51.734;8.950;2023-04-24T14:21:02;15.63;;;9.63;;
4726;SDS011;2377;51.734;8.950;2023-04-24T14:23:30;16.00;;;10.87;;
4726;SDS011;2377;51.734;8.950;2023-04-24T14:25:57;15.40;;;9.90;;
4726;SDS011;2377;51.734;8.950;2023-04-24T14:28:25;19.67;;;10.03;;
4726;SDS011;2377;51.734;8.950;2023-04-24T14:30:52;16.83;;;10.00;;
4726;SDS011;2377;51.734;8.950;2023-04-24T14:33:21;20.30;;;11.17;;
4726;SDS011;2377;51.734;8.950;2023-04-24T14:35:48;15.77;;;10.93;;
4726;SDS011;2377;51.734;8.950;2023-04-24T14:38:15;17.70;;;11.17;;
4726;SDS011;2377;51.734;8.950;2023-04-24T14:40:42;20.30;;;10.73;;
4726;SDS011;2377;51.734;8.950;2023-04-24T14:43:09;22.57;;;11.17;;
4726;SDS011;2377;51.734;8.950;2023-04-24T14:45:36;18.00;;;10.67;;
4726;SDS011;2377;51.734;8.950;2023-04-24T14:48:05;17.17;;;11.03;;
4726;SDS011;2377;51.734;8.950;2023-04-24T14:50:35;16.27;;;10.40;;
4726;SDS011;2377;51.734;8.950;2023-04-24T14:53:02;22.33;;;12.00;;
4726;SDS011;2377;51.734;8.950;2023-04-24T14:55:29;16.83;;;9.70;;
4726;SDS011;2377;51.734;8.950;2023-04-24T14:57:56;22.43;;;9.33;;
4726;SDS011;2377;51.734;8.950;2023-04-24T15:00:23;19.03;;;9.90;;
4726;SDS011;2377;51.734;8.950;2023-04-24T15:02:50;17.03;;;9.47;;
4726;SDS011;2377;51.734;8.950;2023-04-24T15:05:17;13.10;;;7.67;;
4726;SDS011;2377;51.734;8.950;2023-04-24T15:07:46;16.67;;;7.10;;
4726;SDS011;2377;51.734;8.950;2023-04-24T15:10:12;17.07;;;6.63;;
4726;SDS011;2377;51.734;8.950;2023-04-24T15:12:39;14.23;;;6.67;;
4726;SDS011;2377;51.734;8.950;2023-04-24T15:15:07;13.43;;;6.37;;
4726;SDS011;2377;51.734;8.950;2023-04-24T15:17:35;12.40;;;5.27;;
4726;SDS011;2377;51.734;8.950;2023-04-24T15:20:02;9.53;;;5.40;;
4726;SDS011;2377;51.734;8.950;2023-04-24T15:22:31;11.17;;;6.20;;